CAT ESP
Pilots school
Telephone 972234126 972 23 41 26
 
Aerbrava - Aeronautical weather

Aeronautical weather

 

This section shows the meteorological information that is used in the practice of students in the pilot school at our center during training, so it may not be current and should be used at your own risk. AERBRAVA is not responsible for its use.

 

ACTUAL WEATHER

Satellite weather image

sat24.com

Servei Meteorològic de Catalunya

 

LEGE 122300Z 19003KT CAVOK 22/21 Q1013
LEGE 122230Z 00000KT CAVOK 23/21 Q1013
LEGE 122200Z 16004KT 140V200 CAVOK 24/22 Q1013
LEGE 122130Z VRB02KT CAVOK 24/22 Q1014
LEGE 122100Z 00000KT CAVOK 25/21 Q1013
LEGE 122030Z VRB02KT CAVOK 25/22 Q1013
LEGE 122000Z 08004KT 050V170 CAVOK 25/22 Q1012
LEGE 121930Z 18011KT 150V220 9999 FEW050 25/22 Q1012
TAF LEGE 121700Z 1218/1318 18015KT 9999 FEW010 TX33/1313Z TN20/1306Z   BECMG 1221/1223 VRB04KT

Aviation Weather

 
Aerbrava facebook Aerbrava twitter Aerbrava instagram Aerbrava Youtube Aerbrava tumblr Aerbrava flikr Aerbrava pinterest

¡html Vàlid! ¡CSS Vàlid!